Time,TemperatureF,DewpointF,PressureIn,WindDirection,WindDirectionDegrees,WindSpeedMPH,WindSpeedGustMPH,Humidity,HourlyPrecipIn,Conditions,Clouds,dailyrainin,SoftwareType,DateUTC
2013-03-21 00:04:00,25.7,9.6,30.05,ENE,76,0.0,0.0,50,0.00,,,0.00,Wunderground v.1.15,2013-03-21 05:04:00,
2013-03-21 00:14:00,25.6,10.0,30.05,ENE,75,0.0,0.0,51,0.00,,,0.00,Wunderground v.1.15,2013-03-21 05:14:00,
2013-03-21 00:23:00,25.1,9.9,30.04,East,80,0.0,0.0,52,0.00,,,0.00,Wunderground v.1.15,2013-03-21 05:23:00,
2013-03-21 00:29:00,25.1,9.9,30.04,East,100,0.0,0.0,52,0.00,,,0.00,Wunderground v.1.15,2013-03-21 05:29:00,
2013-03-21 00:39:00,25.0,9.8,30.03,East,97,0.0,0.0,52,0.00,,,0.00,Wunderground v.1.15,2013-03-21 05:39:00,
2013-03-21 00:48:00,25.1,9.5,30.04,East,92,0.0,0.0,51,0.00,,,0.00,Wunderground v.1.15,2013-03-21 05:48:00,
2013-03-21 00:53:00,25.3,9.2,30.04,East,93,0.0,0.0,50,0.00,,,0.00,Wunderground v.1.15,2013-03-21 05:53:00,
2013-03-21 00:59:00,25.3,9.2,30.04,East,93,0.0,0.0,50,0.00,,,0.00,Wunderground v.1.15,2013-03-21 05:59:00,
2013-03-21 01:08:00,25.1,9.5,30.04,East,95,0.0,0.0,51,0.00,,,0.00,Wunderground v.1.15,2013-03-21 06:08:00,
2013-03-21 01:18:00,25.1,9.5,30.03,East,96,0.0,0.0,51,0.00,,,0.00,Wunderground v.1.15,2013-03-21 06:18:00,
2013-03-21 01:28:00,24.8,9.6,30.03,East,97,0.0,0.0,52,0.00,,,0.00,Wunderground v.1.15,2013-03-21 06:28:00,
2013-03-21 01:38:00,24.5,9.8,30.02,East,97,0.0,0.0,53,0.00,,,0.00,Wunderground v.1.15,2013-03-21 06:38:00,
2013-03-21 01:43:00,24.5,9.8,30.02,East,96,0.0,0.0,53,0.00,,,0.00,Wunderground v.1.15,2013-03-21 06:43:00,
2013-03-21 01:53:00,24.5,10.2,30.03,East,95,0.0,0.0,54,0.00,,,0.00,Wunderground v.1.15,2013-03-21 06:53:00,
2013-03-21 02:03:00,24.4,9.7,30.04,East,95,0.0,0.0,53,0.00,,,0.00,Wunderground v.1.15,2013-03-21 07:03:00,
2013-03-21 02:08:00,23.9,9.6,30.04,East,95,0.0,0.0,54,0.00,,,0.00,Wunderground v.1.15,2013-03-21 07:08:00,
2013-03-21 02:13:00,23.0,9.6,30.04,East,95,0.0,0.0,56,0.00,,,0.00,Wunderground v.1.15,2013-03-21 07:13:00,
2013-03-21 02:23:00,22.4,9.4,30.03,East,95,0.0,0.0,57,0.00,,,0.00,Wunderground v.1.15,2013-03-21 07:23:00,
2013-03-21 02:28:00,22.2,9.3,30.03,East,95,0.0,0.0,57,0.00,,,0.00,Wunderground v.1.15,2013-03-21 07:28:00,
2013-03-21 02:38:00,22.1,9.2,30.03,East,95,0.0,0.0,57,0.00,,,0.00,Wunderground v.1.15,2013-03-21 07:38:00,
2013-03-21 02:48:00,22.9,9.9,30.03,East,95,0.0,0.0,57,0.00,,,0.00,Wunderground v.1.15,2013-03-21 07:48:00,
2013-03-21 02:58:00,23.3,9.9,30.03,East,95,0.0,0.0,56,0.00,,,0.00,Wunderground v.1.15,2013-03-21 07:58:00,
2013-03-21 03:08:00,23.8,10.0,30.02,East,96,0.0,0.0,55,0.00,,,0.00,Wunderground v.1.15,2013-03-21 08:08:00,
2013-03-21 03:13:00,23.9,10.1,30.02,East,96,0.0,0.0,55,0.00,,,0.00,Wunderground v.1.15,2013-03-21 08:13:00,
2013-03-21 09:33:00,25.3,11.8,29.96,NE,54,0.0,0.0,56,0.00,,,0.00,Wunderground v.1.15,2013-03-21 14:33:00,
2013-03-21 09:43:00,25.3,11.8,29.96,ESE,107,0.0,0.0,56,0.00,,,0.00,Wunderground v.1.15,2013-03-21 14:43:00,
2013-03-21 09:53:00,25.1,11.6,29.95,ESE,116,0.0,0.0,56,0.00,,,0.00,Wunderground v.1.15,2013-03-21 14:53:00,
2013-03-21 09:58:00,25.1,11.2,29.95,East,97,0.0,0.0,55,0.00,,,0.00,Wunderground v.1.15,2013-03-21 14:58:00,
2013-03-21 10:04:00,25.3,11.4,29.95,ESE,106,0.0,0.0,55,0.00,,,0.00,Wunderground v.1.15,2013-03-21 15:04:00,
2013-03-21 10:13:00,25.6,11.7,29.95,ENE,71,0.0,0.0,55,0.00,,,0.00,Wunderground v.1.15,2013-03-21 15:13:00,
2013-03-21 10:23:00,25.7,11.7,29.95,ESE,106,0.0,0.0,55,0.00,,,0.00,Wunderground v.1.15,2013-03-21 15:23:00,
2013-03-21 10:33:00,25.8,11.8,29.95,South,174,0.0,0.0,55,0.00,,,0.00,Wunderground v.1.15,2013-03-21 15:33:00,
2013-03-21 10:43:00,26.0,12.0,29.95,ESE,119,0.0,0.0,55,0.00,,,0.00,Wunderground v.1.15,2013-03-21 15:43:00,
2013-03-21 10:53:00,26.3,12.3,29.95,NE,51,0.0,0.0,55,0.00,,,0.00,Wunderground v.1.15,2013-03-21 15:53:00,
2013-03-21 11:03:00,26.3,11.9,29.94,East,89,0.0,0.0,54,0.00,,,0.00,Wunderground v.1.15,2013-03-21 16:03:00,
2013-03-21 11:13:00,26.3,11.9,29.94,East,86,0.0,0.0,54,0.00,,,0.00,Wunderground v.1.15,2013-03-21 16:13:00,
2013-03-21 11:23:00,26.4,12.0,29.93,ENE,58,0.0,0.0,54,0.00,,,0.00,Wunderground v.1.15,2013-03-21 16:23:00,
2013-03-21 11:33:00,26.7,11.8,29.93,ESE,109,0.0,0.0,53,0.00,,,0.00,Wunderground v.1.15,2013-03-21 16:33:00,
2013-03-21 11:43:00,26.9,12.0,29.93,East,97,0.0,0.0,53,0.00,,,0.00,Wunderground v.1.15,2013-03-21 16:43:00,
2013-03-21 11:53:00,27.2,12.3,29.94,East,96,0.0,0.0,53,0.00,,,0.00,Wunderground v.1.15,2013-03-21 16:53:00,
2013-03-21 11:59:00,27.0,11.7,29.94,East,100,0.0,0.0,52,0.00,,,0.00,Wunderground v.1.15,2013-03-21 16:59:00,
2013-03-21 12:08:00,27.3,12.0,29.94,ESE,104,0.0,0.0,52,0.00,,,0.00,Wunderground v.1.15,2013-03-21 17:08:00,
2013-03-21 12:13:00,27.6,12.2,29.94,SE,138,0.0,0.0,52,0.00,,,0.00,Wunderground v.1.15,2013-03-21 17:13:00,
2013-03-21 12:23:00,28.1,12.7,29.93,ESE,121,0.0,0.0,52,0.00,,,0.00,Wunderground v.1.15,2013-03-21 17:23:00,
2013-03-21 12:34:00,28.2,12.8,29.93,SE,128,0.0,0.0,52,0.00,,,0.00,Wunderground v.1.15,2013-03-21 17:34:00,
2013-03-21 12:43:00,28.4,13.0,29.93,SE,133,0.0,0.0,52,0.00,,,0.00,Wunderground v.1.15,2013-03-21 17:43:00,
2013-03-21 12:53:00,28.7,13.7,29.91,SE,137,0.0,0.0,53,0.00,,,0.00,Wunderground v.1.15,2013-03-21 17:53:00,
2013-03-21 13:04:00,28.2,14.9,29.90,SE,134,0.0,0.0,57,0.00,,,0.00,Wunderground v.1.15,2013-03-21 18:04:00,
2013-03-21 13:13:00,28.1,14.8,29.90,ESE,119,0.0,0.0,57,0.00,,,0.00,Wunderground v.1.15,2013-03-21 18:13:00,
2013-03-21 13:23:00,28.2,14.9,29.90,East,96,0.0,0.0,57,0.00,,,0.00,Wunderground v.1.15,2013-03-21 18:23:00,
2013-03-21 13:33:00,28.4,15.9,29.90,SSE,160,0.0,0.0,59,0.00,,,0.00,Wunderground v.1.15,2013-03-21 18:33:00,
2013-03-21 13:43:00,28.2,16.8,29.90,SE,133,0.0,0.0,62,0.00,,,0.00,Wunderground v.1.15,2013-03-21 18:43:00,
2013-03-21 13:49:00,28.7,17.3,29.89,SE,124,0.0,0.0,62,0.00,,,0.00,Wunderground v.1.15,2013-03-21 18:49:00,
2013-03-21 13:59:00,28.7,17.3,29.89,East,100,0.0,0.0,62,0.00,,,0.00,Wunderground v.1.15,2013-03-21 18:59:00,
2013-03-21 14:08:00,29.1,17.3,29.88,ESE,106,0.0,0.0,61,0.00,,,0.00,Wunderground v.1.15,2013-03-21 19:08:00,
2013-03-21 14:13:00,29.1,17.7,29.88,SSE,152,0.0,0.0,62,0.00,,,0.00,Wunderground v.1.15,2013-03-21 19:13:00,
2013-03-21 14:24:00,29.4,17.6,29.88,SE,138,0.0,0.0,61,0.00,,,0.00,Wunderground v.1.15,2013-03-21 19:24:00,
2013-03-21 14:34:00,29.8,18.0,29.86,ESE,120,0.0,0.0,61,0.00,,,0.00,Wunderground v.1.15,2013-03-21 19:34:00,
2013-03-21 14:43:00,30.4,18.5,29.86,SE,137,0.0,0.0,61,0.00,,,0.00,Wunderground v.1.15,2013-03-21 19:43:00,
2013-03-21 14:53:00,30.6,18.7,29.86,SE,140,0.0,0.0,61,0.00,,,0.00,Wunderground v.1.15,2013-03-21 19:53:00,
2013-03-21 15:03:00,31.0,17.9,29.86,SE,131,0.0,0.0,58,0.00,,,0.00,Wunderground v.1.15,2013-03-21 20:03:00,
2013-03-21 15:13:00,31.3,18.2,29.86,East,95,0.0,0.0,58,0.00,,,0.00,Wunderground v.1.15,2013-03-21 20:13:00,
2013-03-21 15:23:00,31.5,18.0,29.85,East,99,0.0,0.0,57,0.00,,,0.00,Wunderground v.1.15,2013-03-21 20:23:00,
2013-03-21 15:33:00,31.9,18.8,29.85,SE,126,0.0,0.0,58,0.00,,,0.00,Wunderground v.1.15,2013-03-21 20:33:00,
2013-03-21 15:39:00,32.1,18.6,29.85,East,99,0.0,0.0,57,0.00,,,0.00,Wunderground v.1.15,2013-03-21 20:39:00,
2013-03-21 15:49:00,31.9,18.0,29.84,SE,138,0.0,0.0,56,0.00,,,0.00,Wunderground v.1.15,2013-03-21 20:49:00,
2013-03-21 15:58:00,31.8,18.7,29.84,ESE,103,0.0,0.0,58,0.00,,,0.00,Wunderground v.1.15,2013-03-21 20:58:00,
2013-03-21 16:09:00,31.5,18.4,29.84,ESE,104,0.0,0.0,58,0.00,,,0.00,Wunderground v.1.15,2013-03-21 21:09:00,
2013-03-21 16:19:00,31.5,18.8,29.83,SE,126,0.0,0.0,59,0.00,,,0.00,Wunderground v.1.15,2013-03-21 21:19:00,
2013-03-21 16:28:00,31.8,19.5,29.83,SSE,152,0.0,0.0,60,0.00,,,0.00,Wunderground v.1.15,2013-03-21 21:28:00,
2013-03-21 16:38:00,31.3,19.0,29.84,SE,136,0.0,0.0,60,0.00,,,0.00,Wunderground v.1.15,2013-03-21 21:38:00,
2013-03-21 16:49:00,30.9,19.0,29.84,ESE,110,0.0,0.0,61,0.00,,,0.00,Wunderground v.1.15,2013-03-21 21:49:00,
2013-03-21 16:58:00,30.1,19.0,29.84,SSE,147,0.0,0.0,63,0.00,,,0.00,Wunderground v.1.15,2013-03-21 21:58:00,
2013-03-21 17:03:00,30.1,19.0,29.84,SE,136,0.0,0.0,63,0.00,,,0.00,Wunderground v.1.15,2013-03-21 22:03:00,
2013-03-21 17:13:00,30.0,19.3,29.84,SSE,148,0.0,0.0,64,0.00,,,0.00,Wunderground v.1.15,2013-03-21 22:13:00,
2013-03-21 17:23:00,30.0,19.3,29.84,SE,145,0.0,0.0,64,0.00,,,0.00,Wunderground v.1.15,2013-03-21 22:23:00,
2013-03-21 17:33:00,30.0,19.3,29.84,SE,130,0.0,0.0,64,0.00,,,0.00,Wunderground v.1.15,2013-03-21 22:33:00,
2013-03-21 17:43:00,30.0,19.3,29.84,SE,126,0.0,0.0,64,0.00,,,0.00,Wunderground v.1.15,2013-03-21 22:43:00,
2013-03-21 17:53:00,30.0,19.3,29.84,SE,127,0.0,0.0,64,0.00,,,0.00,Wunderground v.1.15,2013-03-21 22:53:00,
2013-03-21 18:03:00,30.0,19.3,29.84,SE,126,0.0,0.0,64,0.00,,,0.00,Wunderground v.1.15,2013-03-21 23:03:00,
2013-03-21 18:13:00,30.0,19.3,29.84,ESE,103,0.0,0.0,64,0.00,,,0.00,Wunderground v.1.15,2013-03-21 23:13:00,
2013-03-21 18:23:00,30.0,19.7,29.84,SSE,147,0.0,0.0,65,0.00,,,0.00,Wunderground v.1.15,2013-03-21 23:23:00,
2013-03-21 18:33:00,29.8,19.8,29.85,ESE,121,0.0,0.0,66,0.00,,,0.00,Wunderground v.1.15,2013-03-21 23:33:00,
2013-03-21 18:43:00,29.7,19.7,29.85,ESE,121,0.0,0.0,66,0.00,,,0.00,Wunderground v.1.15,2013-03-21 23:43:00,
2013-03-21 18:53:00,29.5,19.5,29.85,SSE,152,0.0,0.0,66,0.00,,,0.00,Wunderground v.1.15,2013-03-21 23:53:00,
2013-03-21 19:03:00,29.7,19.7,29.86,ESE,117,0.0,0.0,66,0.00,,,0.00,Wunderground v.1.15,2013-03-22 00:03:00,
2013-03-21 19:13:00,29.5,19.5,29.86,ESE,113,0.0,0.0,66,0.00,,,0.00,Wunderground v.1.15,2013-03-22 00:13:00,
2013-03-21 19:23:00,29.4,19.4,29.87,ESE,113,0.0,0.0,66,0.00,,,0.00,Wunderground v.1.15,2013-03-22 00:23:00,
2013-03-21 19:33:00,29.4,19.1,29.88,SE,131,0.0,0.0,65,0.00,,,0.00,Wunderground v.1.15,2013-03-22 00:33:00,
2013-03-21 19:43:00,29.4,19.1,29.88,SE,134,0.0,0.0,65,0.00,,,0.00,Wunderground v.1.15,2013-03-22 00:43:00,
2013-03-21 19:53:00,29.3,19.0,29.88,SE,126,0.0,0.0,65,0.00,,,0.00,Wunderground v.1.15,2013-03-22 00:53:00,
2013-03-21 20:03:00,29.3,19.0,29.88,SE,144,0.0,0.0,65,0.00,,,0.00,Wunderground v.1.15,2013-03-22 01:03:00,
2013-03-21 20:13:00,29.3,19.0,29.88,ESE,114,0.0,0.0,65,0.00,,,0.00,Wunderground v.1.15,2013-03-22 01:13:00,
2013-03-21 20:23:00,29.3,19.0,29.87,East,99,0.0,0.0,65,0.00,,,0.00,Wunderground v.1.15,2013-03-22 01:23:00,
2013-03-21 20:33:00,29.3,18.3,29.87,ESE,112,0.0,0.0,63,0.00,,,0.00,Wunderground v.1.15,2013-03-22 01:33:00,
2013-03-21 20:43:00,29.5,18.4,29.87,East,97,0.0,0.0,63,0.00,,,0.00,Wunderground v.1.15,2013-03-22 01:43:00,
2013-03-21 20:53:00,29.5,18.1,29.88,ESE,107,0.0,0.0,62,0.00,,,0.00,Wunderground v.1.15,2013-03-22 01:53:00,
2013-03-21 21:04:00,29.5,18.1,29.88,ESE,120,0.0,0.0,62,0.00,,,0.00,Wunderground v.1.15,2013-03-22 02:04:00,
2013-03-21 21:13:00,29.7,18.3,29.88,East,92,0.0,0.0,62,0.00,,,0.00,Wunderground v.1.15,2013-03-22 02:13:00,
2013-03-21 21:23:00,29.7,18.3,29.89,East,96,0.0,0.0,62,0.00,,,0.00,Wunderground v.1.15,2013-03-22 02:23:00,
2013-03-21 21:33:00,29.8,18.4,29.89,East,85,0.0,0.0,62,0.00,,,0.00,Wunderground v.1.15,2013-03-22 02:33:00,
2013-03-21 21:44:00,29.8,18.4,29.89,East,95,0.0,0.0,62,0.00,,,0.00,Wunderground v.1.15,2013-03-22 02:44:00,
2013-03-21 21:53:00,29.8,18.4,29.89,East,89,0.0,0.0,62,0.00,,,0.00,Wunderground v.1.15,2013-03-22 02:53:00,
2013-03-21 21:59:00,30.0,18.5,29.89,East,86,0.0,0.0,62,0.00,,,0.00,Wunderground v.1.15,2013-03-22 02:59:00,
2013-03-21 22:09:00,29.7,18.3,29.89,East,100,0.0,0.0,62,0.00,,,0.00,Wunderground v.1.15,2013-03-22 03:09:00,
2013-03-21 22:19:00,29.8,18.4,29.89,East,92,0.0,0.0,62,0.00,,,0.00,Wunderground v.1.15,2013-03-22 03:19:00,